• Join FlightAware (Why Join?)
  • Login
  • US Flag 
02:25PM EDT


 

Airport Tracker/Info


-or-


 

Live Flight TrackerFlight Track Log ✈ QLK375 ✈ 15-May-2013 ✈ YSSY / SYD - NVVV / VLI

Flight Track Log - Related Links

Times and Time Zones

All times are in EDT time to prevent confusion due to time zone crossing. See the QLK375 flight status page for this flight to view local times or setup timezone preferences in your user account.

Time Position Orientation Groundspeed Altitude Reporting Facility
EDT Latitude Longitude Course Direction KTS MPH feet Rate Location/Type
05:38AM -33.9360 151.1730 348° North 167 192 600  Level FlightAware
05:38AM -33.9288 151.1718 348° North 161 185 900 2,400 Climbing Aus ATC (RADAR)
05:39AM -33.9180 151.1690 350° North 153 176 1,600 1,680 Climbing FlightAware
05:39AM -33.8937 151.1626 350° North 177 204 2,200 1,380 Climbing Aus ATC (RADAR)
05:39AM -33.8950 151.1630 350° North 180 207 2,300 2,040 Climbing FlightAware
05:40AM -33.8693 151.1561 350° North 194 223 3,100 1,980 Climbing Aus ATC (RADAR)
05:40AM -33.8670 151.1560 350° North 199 229 3,300 1,740 Climbing FlightAware
05:40AM -33.8400 151.1490 348° North 228 262 4,000 1,260 Climbing FlightAware
05:41AM -33.8060 151.1630 19° North 293 337 4,500 900 Climbing FlightAware
05:41AM -33.7930 151.1840 53° Northeast 332 382 4,700 780 Climbing FlightAware
05:41AM -33.7860 151.2130 74° East 357 411 4,900 600 Climbing FlightAware
05:41AM -33.7874 151.2655 74° East 355 409 5,100 60 Climbing Aus ATC (RADAR)
05:42AM -33.7988 151.3368 101° East 364 419 5,000 900 Descending Aus ATC (RADAR)
05:43AM -33.7978 151.4272 89° East 374 430 6,300 2,520 Climbing Aus ATC (RADAR)
05:43AM -33.7635 151.4807 52° Northeast 350 403 8,400 2,280 Climbing Aus ATC (RADAR)
05:44AM -33.7320 151.5300 52° Northeast 379 436 9,000 1,680 Climbing FlightAware
05:44AM -33.7090 151.5660 52° Northeast 374 430 10,000 2,400 Climbing FlightAware
05:45AM -33.6740 151.6200 52° Northeast 381 438 11,200 2,280 Climbing FlightAware
05:45AM -33.6452 151.6645 52° Northeast 391 450 12,100 2,100 Climbing Aus ATC (RADAR)
05:46AM -33.6310 151.6860 52° Northeast 394 453 12,600 2,520 Climbing FlightAware
05:46AM -33.5882 151.7518 52° Northeast 402 463 14,200 2,700 Climbing Aus ATC (RADAR)
05:46AM -33.5860 151.7550 52° Northeast 399 459 14,400 2,400 Climbing FlightAware
05:47AM -33.5180 151.8599 52° Northeast 417 480 16,600 2,580 Climbing Aus ATC (RADAR)
05:47AM -33.5150 151.8650 52° Northeast 419 482 16,800 2,400 Climbing FlightAware
05:48AM -33.4636 151.9428 52° Northeast 425 489 18,400 2,220 Climbing Aus ATC (RADAR)
05:48AM -33.4680 151.9360 52° Northeast 422 486 18,300 2,400 Descending FlightAware
05:48AM -33.4206 152.0085 52° Northeast 430 495 19,800 2,400 Climbing Aus ATC (RADAR)
05:48AM -33.4180 152.0130 52° Northeast 429 494 19,900 1,860 Climbing FlightAware
05:49AM -33.3641 152.0941 52° Northeast 440 506 21,200 1,860 Climbing Aus ATC (RADAR)
05:49AM -33.3610 152.1000 52° Northeast 445 512 21,300 1,440 Climbing FlightAware
05:50AM -33.3320 152.1430 52° Northeast 449 517 21,800 1,320 Climbing Aus ATC (RADAR)
05:50AM -33.3090 152.1790 52° Northeast 457 526 22,200 1,320 Climbing FlightAware
05:51AM -33.2560 152.2590 52° Northeast 475 547 23,200 1,560 Climbing FlightAware
05:51AM -33.1971 152.3480 52° Northeast 483 556 24,300 1,560 Climbing Aus ATC (RADAR)
05:51AM -33.1930 152.3540 52° Northeast 480 552 24,400 1,440 Climbing FlightAware
05:52AM -33.1624 152.4005 52° Northeast 486 559 24,900 1,440 Climbing Aus ATC (RADAR)
05:52AM -33.1310 152.4480 52° Northeast 492 566 25,500 1,560 Climbing FlightAware
05:53AM -33.0730 152.5350 52° Northeast 496 571 26,700 2,160 Climbing FlightAware
05:53AM -33.0424 152.5820 52° Northeast 495 570 27,600 2,220 Climbing Aus ATC (RADAR)
05:53AM -33.0170 152.6200 52° Northeast 481 554 28,200 1,740 Climbing FlightAware
05:54AM -32.9550 152.7130 52° Northeast 478 550 29,600 1,440 Climbing FlightAware
05:55AM -32.8990 152.7960 51° Northeast 493 567 30,300 900 Climbing FlightAware
05:55AM -32.8443 152.8771 51° Northeast 501 577 30,700 600 Climbing Aus ATC (RADAR)
05:55AM -32.8400 152.8830 51° Northeast 504 580 30,700 600 Level FlightAware
05:56AM -32.7722 152.9838 51° Northeast 508 585 31,200 660 Climbing Aus ATC (RADAR)
05:56AM -32.7720 152.9840 51° Northeast 521 600 31,200 840 Level FlightAware
05:57AM -32.7317 153.0453 51° Northeast 527 606 31,600 1,320 Climbing Aus ATC (RADAR)
05:57AM -32.7120 153.0740 51° Northeast 522 601 32,100 1,860 Climbing FlightAware
05:57AM -32.6738 153.1306 51° Northeast 514 592 32,800 1,800 Climbing Aus ATC (RADAR)
05:58AM -32.6550 153.1590 51° Northeast 518 596 33,300 1,740 Climbing FlightAware
05:58AM -32.6116 153.2231 51° Northeast 516 594 34,000 1,320 Climbing Aus ATC (RADAR)
05:58AM -32.5950 153.2470 51° Northeast 511 588 34,200 840 Climbing FlightAware
05:59AM -32.5598 153.2994 51° Northeast 512 589 34,500 600 Climbing Aus ATC (RADAR)
05:59AM -32.5180 153.3600 51° Northeast 525 604 34,700 480 Climbing FlightAware
05:59AM -32.4837 153.4109 51° Northeast 525 604 34,900 480 Climbing Aus ATC (RADAR)
06:00AM -32.4610 153.4440 51° Northeast 534 615 35,000 420 Climbing FlightAware
06:00AM -32.3940 153.5430 51° Northeast 544 626 35,400 780 Climbing FlightAware
06:01AM -32.2980 153.6820 51° Northeast 538 619 36,400 1,080 Climbing FlightAware
06:02AM -32.2568 153.7436 51° Northeast 537 618 36,900 1,200 Climbing Aus ATC (RADAR)
06:02AM -32.2510 153.7510 51° Northeast 534 615 37,000 120 Climbing FlightAware
06:02AM -32.2023 153.8224 51° Northeast 532 612 37,000  Level Aus ATC (RADAR)
06:03AM -32.1810 153.8530 51° Northeast 535 616 37,000  Level FlightAware
06:03AM -32.1322 153.9240 51° Northeast 531 611 37,000  Level Aus ATC (RADAR)
06:03AM -32.1260 153.9320 51° Northeast 534 615 37,000  Level FlightAware
06:04AM -32.0775 154.0025 51° Northeast 532 612 37,000  Level Aus ATC (RADAR)
06:04AM -32.0450 154.0490 51° Northeast 533 613 37,000  Level FlightAware
06:04AM -32.0074 154.1039 51° Northeast 533 613 37,000  Level Aus ATC (RADAR)
06:05AM -31.9890 154.1300 51° Northeast 533 613 37,000  Level FlightAware
06:05AM -31.9240 154.2250 51° Northeast 531 611 37,000  Level FlightAware
06:05AM -31.9143 154.2382 51° Northeast 529 609 37,000  Level Aus ATC (RADAR)
06:06AM -31.8670 154.3040 50° Northeast 530 610 37,000  Level FlightAware
06:06AM -31.8291 154.3605 50° Northeast 527 606 37,000  Level Aus ATC (RADAR)
06:07AM -31.8010 154.4003 50° Northeast 510 587 37,000  Level Aus ATC (RADAR)
06:07AM -31.7670 154.4480 51° Northeast 528 608 37,000  Level FlightAware
06:07AM -31.7518 154.4709 51° Northeast 525 604 37,000  Level Aus ATC (RADAR)
06:08AM -31.6920 154.5560 51° Northeast 525 604 37,000  Level FlightAware
06:08AM -31.6458 154.6207 51° Northeast 508 585 37,000  Level Aus ATC (RADAR)
06:09AM -31.6100 154.6730 51° Northeast 524 603 37,000  Level FlightAware
06:09AM -31.5440 154.7670 51° Northeast 523 602 37,000  Level FlightAware
06:10AM -31.4910 154.8410 50° Northeast 524 603 37,000  Level FlightAware
06:11AM -31.4240 154.9360 50° Northeast 526 605 37,000  Level FlightAware
06:11AM -31.3935 154.9807 50° Northeast 508 585 37,000  Level Aus ATC (RADAR)
06:11AM -31.3577 155.0291 49° Northeast 524 603 37,000  Level Aus ATC (RADAR)
06:11AM -31.3580 155.0290 49° Northeast 527 606 37,000  Level FlightAware
06:12AM -31.3191 155.0838 49° Northeast 524 603 37,000  Level Aus ATC (RADAR)
06:12AM -31.2643 155.1609 50° Northeast 526 605 37,000  Level Aus ATC (RADAR)
06:13AM -31.2650 155.1600 50° Northeast 528 608 37,000  Level FlightAware
06:13AM -31.1943 155.2594 50° Northeast 526 605 37,000  Level Aus ATC (RADAR)
06:13AM -31.2090 155.2370 50° Northeast 527 606 37,000  Level FlightAware
06:14AM -31.1399 155.3357 50° Northeast 525 604 37,000  Level Aus ATC (RADAR)
06:14AM -31.1560 155.3120 50° Northeast 527 606 37,000  Level FlightAware
06:14AM -31.0692 155.4339 50° Northeast 526 605 37,000  Level Aus ATC (RADAR)
06:15AM -31.1030 155.3860 50° Northeast 527 606 37,000  Level FlightAware
06:15AM -31.0297 155.4885 50° Northeast 527 606 37,000  Level Aus ATC (RADAR)
06:15AM -31.0360 155.4790 50° Northeast 527 606 37,000  Level FlightAware
06:16AM -30.9830 155.5530 50° Northeast 527 606 37,000  Level FlightAware
06:17AM -30.8708 155.7143 50° Northeast 506 582 37,000  Level Aus ATC (RADAR)
06:17AM -30.9300 155.6270 50° Northeast 527 606 37,000  Level FlightAware
06:17AM -30.8324 155.7616 50° Northeast 530 610 37,000  Level Aus ATC (RADAR)
06:17AM -30.8760 155.7010 50° Northeast 527 606 37,000  Level FlightAware
06:18AM -30.7684 155.8495 50° Northeast 533 613 37,000  Level Aus ATC (RADAR)
06:18AM -30.8230 155.7750 50° Northeast 527 606 37,000  Level FlightAware
06:18AM -30.6979 155.9468 50° Northeast 528 608 37,000  Level Aus ATC (RADAR)
06:19AM -30.7700 155.8490 50° Northeast 527 606 37,000  Level FlightAware
06:19AM -30.6434 156.0219 50° Northeast 524 603 37,000  Level Aus ATC (RADAR)
06:20AM -30.7030 155.9410 50° Northeast 527 606 37,000  Level FlightAware
06:20AM -30.5408 156.1624 50° Northeast 526 605 37,000  Level Aus ATC (RADAR)
06:20AM -30.5390 156.1650 50° Northeast 527 606 37,000  Level FlightAware
06:21AM -30.4855 156.2381 50° Northeast 526 605 37,000  Level Aus ATC (RADAR)
06:21AM -30.4870 156.2340 50° Northeast 527 606 37,000  Level FlightAware
06:21AM -30.4391 156.3013 50° Northeast 523 602 37,000  Level Aus ATC (RADAR)
06:22AM -30.4190 156.3250 50° Northeast 527 606 37,000  Level FlightAware
06:22AM -30.3650 156.3970 49° Northeast 527 606 37,000  Level FlightAware
06:23AM -30.3100 156.4700 49° Northeast 527 606 37,000  Level FlightAware
06:23AM -30.2173 156.6027 49° Northeast 525 604 37,000  Level Aus ATC (RADAR)
06:24AM -30.2560 156.5420 49° Northeast 527 606 37,000  Level FlightAware
06:24AM -30.1618 156.6779 49° Northeast 525 604 37,000  Level Aus ATC (RADAR)
06:24AM -30.2020 156.6150 49° Northeast 527 606 37,000  Level FlightAware
06:25AM -30.0898 156.7748 49° Northeast 526 605 37,000  Level Aus ATC (RADAR)
06:25AM -30.1340 156.7050 49° Northeast 527 606 37,000  Level FlightAware
06:25AM -30.0340 156.8499 49° Northeast 527 606 37,000  Level Aus ATC (RADAR)
06:26AM -30.0790 156.7770 49° Northeast 527 606 37,000  Level FlightAware
06:26AM -29.9536 156.9569 49° Northeast 527 606 37,000  Level Aus ATC (RADAR)
06:26AM -30.0250 156.8500 49° Northeast 527 606 37,000  Level FlightAware
06:27AM -29.8746 157.0629 49° Northeast 523 602 37,000  Level Aus ATC (RADAR)
06:27AM -29.9700 156.9220 49° Northeast 527 606 37,000  Level FlightAware
06:28AM -29.8189 157.1376 49° Northeast 525 604 37,000  Level Aus ATC (RADAR)
06:28AM -29.9160 156.9940 49° Northeast 527 606 37,000  Level FlightAware
06:28AM -29.7466 157.2339 49° Northeast 526 605 37,000  Level Aus ATC (RADAR)
06:29AM -29.8480 157.0840 49° Northeast 527 606 37,000  Level FlightAware
06:29AM -29.6905 157.3085 49° Northeast 527 606 37,000  Level Aus ATC (RADAR)
06:29AM -29.7940 157.1560 49° Northeast 527 606 37,000  Level FlightAware
06:30AM -29.6187 157.4039 49° Northeast 526 605 37,000  Level Aus ATC (RADAR)
06:30AM -29.5910 157.4410 49° Northeast 524 603 37,000  Level FlightAware
06:31AM -29.5214 157.5311 49° Northeast 527 606 37,000  Level Aus ATC (RADAR)
06:31AM -29.5320 157.5180 49° Northeast 523 602 37,000  Level FlightAware
06:32AM -29.4510 157.6250 49° Northeast 522 601 37,000  Level FlightAware
06:32AM -29.3858 157.7098 49° Northeast 521 600 37,000  Level Aus ATC (RADAR)
06:32AM -29.3840 157.7140 49° Northeast 522 601 37,000  Level FlightAware
06:33AM -29.3306 157.7822 49° Northeast 517 595 37,000  Level Aus ATC (RADAR)
06:33AM -29.3300 157.7850 49° Northeast 522 601 37,000  Level FlightAware
06:33AM -29.2596 157.8748 49° Northeast 514 592 37,000  Level Aus ATC (RADAR)
06:34AM -29.2760 157.8560 49° Northeast 522 601 37,000  Level FlightAware
06:34AM -29.2024 157.9471 49° Northeast 517 595 37,000  Level Aus ATC (RADAR)
06:34AM -29.2220 157.9270 49° Northeast 522 601 37,000  Level FlightAware
06:35AM -29.1550 158.0160 49° Northeast 522 601 37,000  Level FlightAware
06:36AM -29.0419 158.1514 49° Northeast 515 593 37,000  Level Aus ATC (RADAR)
06:36AM -29.1010 158.0870 49° Northeast 522 601 37,000  Level FlightAware
06:37AM -29.0470 158.1580 49° Northeast 522 601 37,000  Level FlightAware
06:37AM -28.9930 158.2280 49° Northeast 522 601 37,000  Level FlightAware
06:38AM -28.9390 158.2990 49° Northeast 522 601 37,000  Level FlightAware
06:39AM -28.8850 158.3700 49° Northeast 522 601 37,000  Level FlightAware
06:39AM -28.8180 158.4590 49° Northeast 522 601 37,000  Level FlightAware
06:40AM -28.7640 158.5290 49° Northeast 522 601 37,000  Level FlightAware
06:41AM -28.7100 158.6000 49° Northeast 522 601 37,000  Level FlightAware
06:41AM -28.4860 158.8730 43° Northeast 37,000  Level Aus ATC (Calculated)
06:43AM -28.3542 159.0023 41° Northeast  Level Estimated
06:44AM -28.2528 159.1015 41° Northeast  Level Estimated
06:44AM -28.1626 159.2709 42° Northeast 39,000  Level Aus ATC (Calculated)
06:46AM -28.0300 159.3987 40° Northeast  Level Estimated
06:47AM -27.9280 159.4968 40° Northeast  Level Estimated
06:47AM -27.9176 159.5698 42° Northeast 39,000  Level Aus ATC (Calculated)
06:49AM -27.7529 159.7263 40° Northeast  Level Estimated
06:49AM -27.6912 159.8442 41° Northeast 39,000  Level Aus ATC (Calculated)
06:50AM -27.6509 159.8230 40° Northeast  Level Estimated
06:51AM -27.5479 159.9786 40° Northeast  Level Estimated
06:52AM -27.4455 160.0744 40° Northeast  Level Estimated
06:53AM -27.3430 160.1701 40° Northeast  Level Estimated
06:53AM -27.2723 160.3471 41° Northeast 39,000  Level Aus ATC (Calculated)
06:54AM -27.2404 160.2656 40° Northeast  Level Estimated
06:55AM -27.1622 160.4479 39° Northeast  Level Estimated
06:56AM -27.0590 160.5423 39° Northeast  Level Estimated
06:56AM -26.9885 160.6844 40° Northeast 39,000  Level Aus ATC (Calculated)
06:56AM -26.9263 160.7580 40° Northeast 39,000 -60 Level Aus ATC (Calculated)
06:58AM -26.8155 160.8574 39° Northeast  Level Estimated
06:58AM -26.7453 160.9713 39° Northeast 39,000  Level Aus ATC (Calculated)
06:59AM -26.7115 160.9504 39° Northeast  Level Estimated
07:00AM -26.5957 161.1038 38° Northeast  Level Estimated
07:00AM -26.5262 161.2282 39° Northeast 39,000  Level Aus ATC (Calculated)
07:01AM -26.4782 161.2843 38° Northeast 39,000 -120 Level Aus ATC (Calculated)
07:02AM -26.3733 161.3757 38° Northeast  Level Estimated
07:02AM -26.3386 161.4470 38° Northeast 39,000  Level Aus ATC (Calculated)
07:03AM -26.2542 161.5451 38° Northeast 39,000 -120 Level Aus ATC (Calculated)
07:04AM -26.1487 161.6356 38° Northeast  Level Estimated
07:05AM -26.0432 161.7260 38° Northeast  Level Estimated
07:06AM -25.9377 161.8161 38° Northeast  Level Estimated
07:07AM -25.8321 161.9062 38° Northeast  Level Estimated
07:08AM -25.7264 161.9960 37° Northeast  Level Estimated
07:09AM -25.6206 162.0857 37° Northeast  Level Estimated
07:10AM -25.5149 162.1753 37° Northeast  Level Estimated
07:11AM -25.4090 162.2647 37° Northeast  Level Estimated
07:12AM -25.3032 162.3539 37° Northeast  Level Estimated
07:13AM -25.1972 162.4430 37° Northeast  Level Estimated
07:13AM -25.2599 162.6843 32° Northeast 39,000  Level Aus ATC (Calculated)
07:14AM -25.1520 162.7704 36° Northeast  Level Estimated
07:15AM -25.0440 162.8563 36° Northeast  Level Estimated
07:16AM -24.9359 162.9420 36° Northeast  Level Estimated
07:17AM -24.8278 163.0276 36° Northeast  Level Estimated
07:18AM -24.7197 163.1131 36° Northeast  Level Estimated
07:19AM -24.6115 163.1984 36° Northeast  Level Estimated
07:20AM -24.5033 163.2836 36° Northeast  Level Estimated
07:21AM -24.3950 163.3686 36° Northeast  Level Estimated
07:22AM -24.2866 163.4534 36° Northeast  Level Estimated
07:23AM -24.1783 163.5381 35° Northeast  Level Estimated
07:24AM -24.0698 163.6227 35° Northeast  Level Estimated
07:25AM -23.9614 163.7072 35° Northeast  Level Estimated
07:26AM -23.8528 163.7914 35° Northeast  Level Estimated
07:27AM -23.7443 163.8756 35° Northeast  Level Estimated
07:28AM -23.6357 163.9596 35° Northeast  Level Estimated
07:29AM -23.5270 164.0435 35° Northeast  Level Estimated
07:30AM -23.4183 164.1272 35° Northeast  Level Estimated
07:31AM -23.3095 164.2108 35° Northeast  Level Estimated
07:32AM -23.2008 164.2943 35° Northeast  Level Estimated
07:33AM -23.0919 164.3776 35° Northeast  Level Estimated
07:33AM -23.1800 164.1090 35° Northeast 487 560 37,000  Level FlightAware
07:34AM -22.9830 164.4608 35° Northeast  Level Estimated
07:34AM -23.1010 164.1570 29° Northeast 488 562 37,000  Level FlightAware
07:34AM -23.0220 164.2050 29° Northeast 488 562 37,000  Level FlightAware
07:35AM -22.9320 164.2590 29° Northeast 488 562 37,000  Level FlightAware
07:36AM -22.8590 164.3140 35° Northeast 496 571 37,000  Level FlightAware
07:36AM -22.7840 164.3780 38° Northeast 496 571 37,000  Level FlightAware
07:37AM -22.7060 164.4440 38° Northeast 496 571 37,000  Level FlightAware
07:38AM -22.6220 164.5150 38° Northeast 495 570 37,000  Level FlightAware
07:39AM -22.5490 164.5760 38° Northeast 497 572 37,000  Level FlightAware
07:39AM -22.4770 164.6380 39° Northeast 497 572 37,000  Level FlightAware
07:40AM -22.3960 164.7050 37° Northeast 498 573 37,000  Level FlightAware
07:41AM -22.3160 164.7720 38° Northeast 499 574 37,000  Level FlightAware
07:41AM -22.2430 164.8340 38° Northeast 500 575 37,000  Level FlightAware
07:42AM -22.1670 164.8980 38° Northeast 492 566 37,000  Level FlightAware
07:43AM -22.0890 164.9630 38° Northeast 488 562 37,000  Level FlightAware
07:44AM -22.0170 165.0230 38° Northeast 487 560 37,000  Level FlightAware
07:44AM -21.9450 165.0830 38° Northeast 486 559 37,000  Level FlightAware
07:45AM -21.8660 165.1490 38° Northeast 486 559 37,000  Level FlightAware
07:46AM -21.7920 165.2110 38° Northeast 484 557 37,000  Level FlightAware
07:46AM -21.7180 165.2720 37° Northeast 484 557 37,000  Level FlightAware
07:47AM -21.6440 165.3330 37° Northeast 483 556 37,000  Level FlightAware
07:48AM -21.5620 165.4010 38° Northeast 482 555 37,000  Level FlightAware
07:48AM -21.4910 165.4600 38° Northeast 485 558 37,000  Level FlightAware
07:49AM -21.3980 165.5360 37° Northeast 487 560 37,000  Level FlightAware
07:50AM -21.3370 165.5850 37° Northeast 487 560 37,000  Level FlightAware
07:51AM -21.2760 165.6350 37° Northeast 487 560 37,000  Level FlightAware
07:51AM -21.1750 165.7210 38° Northeast 473 544 37,000  Level FlightAware
07:52AM -21.0860 165.7930 37° Northeast 472 543 37,000  Level FlightAware
07:53AM -21.0270 165.8410 37° Northeast 472 543 37,000  Level FlightAware
07:54AM -20.9680 165.8890 37° Northeast 472 543 37,000  Level FlightAware
07:55AM -20.8940 165.9480 37° Northeast 472 543 37,000  Level FlightAware
07:55AM -20.8340 165.9960 37° Northeast 472 543 37,000  Level FlightAware
07:56AM -20.7750 166.0440 37° Northeast 472 543 37,000  Level FlightAware
07:57AM -20.7160 166.0920 37° Northeast 472 543 37,000  Level FlightAware
07:57AM -20.5740 166.2120 38° Northeast 468 539 37,000  Level FlightAware
07:58AM -20.5060 166.2670 37° Northeast 469 540 37,000  Level FlightAware
07:59AM -20.4470 166.3160 38° Northeast 469 540 37,000  Level FlightAware
07:59AM -20.3760 166.3730 37° Northeast 469 540 37,000  Level FlightAware
08:00AM -20.3020 166.4320 37° Northeast 469 540 37,000  Level FlightAware
08:01AM -20.2430 166.4790 37° Northeast 469 540 37,000  Level FlightAware
08:01AM -20.1840 166.5260 37° Northeast 469 540 37,000  Level FlightAware
08:02AM -20.1250 166.5740 37° Northeast 469 540 37,000  Level FlightAware
08:03AM -20.0670 166.6210 37° Northeast 469 540 37,000  Level FlightAware
08:04AM -19.9930 166.6800 37° Northeast 469 540 37,000  Level FlightAware
08:04AM -19.9340 166.7270 37° Northeast 469 540 37,000  Level FlightAware
08:05AM -19.8750 166.7750 37° Northeast 469 540 37,000  Level FlightAware
08:06AM -19.8160 166.8220 37° Northeast 469 540 37,000  Level FlightAware
08:06AM -19.7570 166.8690 37° Northeast 469 540 37,000  Level FlightAware
08:07AM -19.6840 166.9280 37° Northeast 469 540 37,000  Level FlightAware
08:08AM -19.6250 166.9750 37° Northeast 469 540 37,000  Level FlightAware
08:08AM -19.5660 167.0220 37° Northeast 469 540 37,000  Level FlightAware
08:11AM -19.3405 167.1807 34° Northeast  Level Estimated
08:12AM -19.2295 167.2585 34° Northeast  Level Estimated
08:13AM -19.1185 167.3363 34° Northeast  Level Estimated
08:14AM -19.0075 167.4140 33° Northeast  Level Estimated
08:15AM -18.8964 167.4915 33° Northeast  Level Estimated
08:16AM -18.7854 167.5690 33° Northeast  Level Estimated
08:17AM -18.6742 167.6463 33° Northeast  Level Estimated
08:18AM -18.5631 167.7236 33° Northeast  Level Estimated
08:19AM -18.4519 167.8007 33° Northeast  Level Estimated
08:20AM -18.3407 167.8778 33° Northeast  Level Estimated
08:21AM -18.2294 167.9547 33° Northeast  Level Estimated
08:22AM -18.1182 168.0316 33° Northeast  Level Estimated
08:23AM -18.0068 168.1083 33° Northeast  Level Estimated
08:24AM -17.8955 168.1850 33° Northeast  Level Estimated
08:25AM -17.7841 168.2616 33° Northeast  Level Estimated
08:26AM -17.6993 168.3198 33° Northeast  Level Estimated
08:27AM -17.6993 168.3198 37° Northeast  Level Estimated
08:28AM -17.6993 168.3198 143° Southeast  Level Estimated
08:29AM -17.6993 168.3198 37° Northeast  Level Estimated
08:30AM -17.6993 168.3198 143° Southeast  Level Estimated
08:31AM -17.6993 168.3198 37° Northeast  Level Estimated
08:32AM -17.6993 168.3198 143° Southeast  Level Estimated
08:33AM -17.6993 168.3198 37° Northeast  Level Estimated
08:34AM -17.6993 168.3198 143° Southeast  Level Estimated
08:35AM -17.6993 168.3198 37° Northeast  Level Estimated
08:36AM -17.6993 168.3198 143° Southeast  Level Estimated
08:37AM -17.6993 168.3198 37° Northeast  Level Estimated
08:38AM -17.6993 168.3198 143° Southeast  Level Estimated
08:39AM -17.6993 168.3198 37° Northeast  Level Estimated
08:40AM -17.6993 168.3198 143° Southeast  Level Estimated
08:41AM -17.6993 168.3198 37° Northeast  Level Estimated
08:42AM -17.6993 168.3198 143° Southeast  Level Estimated
08:43AM -17.6993 168.3198 37° Northeast  Level Estimated
08:44AM -17.6993 168.3198 143° Southeast  Level Estimated